Time;durP1;ratioP1;P1;durP2;ratioP2;P2;SDS_P1;SDS_P2;PMS_P1;PMS_P2;Temp;Humidity;BMP_temperature;BMP_pressure;BME280_temperature;BME280_humidity;BME280_pressure;Samples;Min_cycle;Max_cycle;Signal;HPM_P1;HPM_P2
2022/09/18 00:01:23;;;;;;;3.92;2.95;;;;;;;;;;5012298;28;20080;-85
2022/09/18 00:03:50;;;;;;;4.55;2.92;;;;;;;;;;5013324;28;20022;-85
2022/09/18 00:06:29;;;;;;;4.85;2.67;;;;;;;;;;5014626;28;20034;-82
2022/09/18 00:08:58;;;;;;;5.75;3.00;;;;;;;;;;5015805;28;20026;-82
2022/09/18 00:11:25;;;;;;;5.63;2.45;;;;;;;;;;5015520;28;20381;-83
2022/09/18 00:14:07;;;;;;;5.53;2.92;;;;;;;;;;5015794;28;20489;-83
2022/09/18 00:16:41;;;;;;;5.10;3.20;;;;;;;;;;5015786;28;20033;-83
2022/09/18 00:19:14;;;;;;;7.78;3.17;;;;;;;;;;5014116;28;20034;-82
2022/09/18 00:21:42;;;;;;;5.32;3.28;;;;;;;;;;5015519;28;20487;-82
2022/09/18 00:24:08;;;;;;;6.05;3.33;;;;;;;;;;5015486;28;20026;-84
2022/09/18 00:26:34;;;;;;;8.32;3.40;;;;;;;;;;5015499;28;20501;-82
2022/09/18 00:29:01;;;;;;;7.25;3.28;;;;;;;;;;5015289;28;20053;-82
2022/09/18 00:31:29;;;;;;;6.07;3.10;;;;;;;;;;5015456;28;20042;-85
2022/09/18 00:33:55;;;;;;;6.07;2.78;;;;;;;;;;5013918;28;20366;-83
2022/09/18 00:36:22;;;;;;;8.45;3.17;;;;;;;;;;5015124;28;20046;-83
2022/09/18 00:38:48;;;;;;;4.28;3.15;;;;;;;;;;5013945;28;20026;-82
2022/09/18 00:41:22;;;;;;;3.60;2.53;;;;;;;;;;5015152;28;20481;-83
2022/09/18 00:43:55;;;;;;;4.35;2.80;;;;;;;;;;5015137;28;20465;-82
2022/09/18 00:46:31;;;;;;;6.10;3.20;;;;;;;;;;5015098;28;20021;-84
2022/09/18 00:48:57;;;;;;;7.13;3.17;;;;;;;;;;5014974;28;20105;-82
2022/09/18 00:51:23;;;;;;;3.88;3.00;;;;;;;;;;5014975;28;20436;-83
2022/09/18 00:53:53;;;;;;;6.15;3.45;;;;;;;;;;5014870;28;20101;-84
2022/09/18 00:56:19;;;;;;;8.63;3.90;;;;;;;;;;5014947;28;20076;-84
2022/09/18 00:58:45;;;;;;;4.90;3.30;;;;;;;;;;5014765;28;20022;-84
2022/09/18 01:01:11;;;;;;;5.63;3.63;;;;;;;;;;5014703;28;20100;-82
2022/09/18 01:03:38;;;;;;;5.47;2.60;;;;;;;;;;5014705;28;20040;-83
2022/09/18 01:06:14;;;;;;;4.07;2.97;;;;;;;;;;5014639;28;20025;-82
2022/09/18 01:08:59;;;;;;;3.92;2.28;;;;;;;;;;5014655;28;20050;-83
2022/09/18 01:11:28;;;;;;;5.55;3.17;;;;;;;;;;5014434;28;20084;-83
2022/09/18 01:14:00;;;;;;;5.63;2.75;;;;;;;;;;5014760;28;20068;-82
2022/09/18 01:16:26;;;;;;;4.80;2.80;;;;;;;;;;5013359;28;20026;-82
2022/09/18 01:18:55;;;;;;;3.40;2.72;;;;;;;;;;5014574;28;20527;-82
2022/09/18 01:21:30;;;;;;;4.05;3.20;;;;;;;;;;5014335;28;20036;-84
2022/09/18 01:23:56;;;;;;;6.45;3.72;;;;;;;;;;5014460;28;20076;-83
2022/09/18 01:26:28;;;;;;;4.35;3.22;;;;;;;;;;5014218;28;20034;-80
2022/09/18 01:29:13;;;;;;;5.60;3.55;;;;;;;;;;5014315;28;20022;-79
2022/09/18 01:31:41;;;;;;;3.25;2.30;;;;;;;;;;5014227;28;20042;-79
2022/09/18 01:34:13;;;;;;;5.15;3.20;;;;;;;;;;5014010;28;20057;-80
2022/09/18 01:36:41;;;;;;;4.07;2.55;;;;;;;;;;5013972;28;20048;-80
2022/09/18 01:39:12;;;;;;;5.10;2.50;;;;;;;;;;5014151;28;20121;-80
2022/09/18 01:41:40;;;;;;;4.38;2.63;;;;;;;;;;5013734;28;20022;-80
2022/09/18 01:44:18;;;;;;;5.20;3.67;;;;;;;;;;5014088;28;20029;-79
2022/09/18 01:46:45;;;;;;;4.50;3.53;;;;;;;;;;5014075;28;20477;-80
2022/09/18 01:49:16;;;;;;;4.68;3.33;;;;;;;;;;5014200;28;20033;-82
2022/09/18 01:51:47;;;;;;;5.45;3.35;;;;;;;;;;5013852;28;20038;-79
2022/09/18 01:54:19;;;;;;;4.57;2.70;;;;;;;;;;5014093;28;20144;-79
2022/09/18 01:57:09;;;;;;;3.28;2.63;;;;;;;;;;5013938;28;20108;-82
2022/09/18 01:59:38;;;;;;;4.25;2.90;;;;;;;;;;5004242;28;20033;-79
2022/09/18 02:02:07;;;;;;;4.22;3.05;;;;;;;;;;5013629;28;20030;-81
2022/09/18 02:04:35;;;;;;;4.22;3.75;;;;;;;;;;5013710;28;20129;-79
2022/09/18 02:07:13;;;;;;;5.30;3.55;;;;;;;;;;5013628;28;20485;-80
2022/09/18 02:09:39;;;;;;;4.78;2.10;;;;;;;;;;5013869;28;20432;-81
2022/09/18 02:12:10;;;;;;;6.88;1.85;;;;;;;;;;5013381;28;20492;-84
2022/09/18 02:14:55;;;;;;;5.13;1.80;;;;;;;;;;5013558;28;20026;-83
2022/09/18 02:17:24;;;;;;;3.33;1.45;;;;;;;;;;5013656;28;20469;-79
2022/09/18 02:19:53;;;;;;;3.85;1.35;;;;;;;;;;5013431;28;20113;-80
2022/09/18 02:22:20;;;;;;;2.42;0.88;;;;;;;;;;5013390;28;20026;-79
2022/09/18 02:24:48;;;;;;;3.55;0.80;;;;;;;;;;5013395;28;20022;-79
2022/09/18 02:27:15;;;;;;;2.30;0.75;;;;;;;;;;5013079;28;20054;-80
2022/09/18 02:29:43;;;;;;;2.80;0.90;;;;;;;;;;5013162;28;20103;-79
2022/09/18 02:32:09;;;;;;;5.03;1.13;;;;;;;;;;5013377;28;20385;-78
2022/09/18 02:34:35;;;;;;;2.38;0.95;;;;;;;;;;5011760;28;20152;-83
2022/09/18 02:37:25;;;;;;;1.85;0.68;;;;;;;;;;5013208;28;20473;-80
2022/09/18 02:40:14;;;;;;;2.22;0.60;;;;;;;;;;5003140;28;20034;-80
2022/09/18 02:42:40;;;;;;;4.30;0.65;;;;;;;;;;5013313;28;20087;-82
2022/09/18 02:45:25;;;;;;;2.67;0.73;;;;;;;;;;5013088;28;20083;-77
2022/09/18 02:47:51;;;;;;;;;;;;;;;;;;5013215;28;20029;-82
2022/09/18 02:50:23;;;;;;;1.27;0.50;;;;;;;;;;5013102;28;20276;-86
2022/09/18 02:53:08;;;;;;;2.85;0.75;;;;;;;;;;5012777;28;20465;-79
2022/09/18 02:55:55;;;;;;;2.70;0.40;;;;;;;;;;5012769;28;20073;-81
2022/09/18 02:58:27;;;;;;;1.20;0.50;;;;;;;;;;5012898;28;20092;-81
2022/09/18 03:00:55;;;;;;;1.50;0.43;;;;;;;;;;5013115;28;20108;-83
2022/09/18 03:03:25;;;;;;;1.13;0.40;;;;;;;;;;5012830;28;20032;-81
2022/09/18 03:05:51;;;;;;;2.13;0.40;;;;;;;;;;5012923;28;20026;-81
2022/09/18 03:08:18;;;;;;;1.17;0.38;;;;;;;;;;5013486;28;20452;-78
2022/09/18 03:10:44;;;;;;;0.60;0.30;;;;;;;;;;5013755;28;20037;-82
2022/09/18 03:13:10;;;;;;;1.45;0.30;;;;;;;;;;5012617;28;20022;-83
2022/09/18 03:15:36;;;;;;;0.60;0.50;;;;;;;;;;5012775;28;20057;-81
2022/09/18 03:18:02;;;;;;;0.32;0.30;;;;;;;;;;5012785;28;20018;-84
2022/09/18 03:20:28;;;;;;;1.13;0.30;;;;;;;;;;5012852;28;20436;-78
2022/09/18 03:22:54;;;;;;;1.33;0.30;;;;;;;;;;5012593;28;20041;-79
2022/09/18 03:25:20;;;;;;;0.63;0.20;;;;;;;;;;5012407;28;20036;-86
2022/09/18 03:27:46;;;;;;;0.20;0.10;;;;;;;;;;5011394;28;20392;-79
2022/09/18 03:30:13;;;;;;;0.50;0.20;;;;;;;;;;5012470;28;20088;-83
2022/09/18 03:32:39;;;;;;;1.95;0.20;;;;;;;;;;5012685;28;20018;-80
2022/09/18 03:35:06;;;;;;;1.20;0.20;;;;;;;;;;5012557;28;20445;-79
2022/09/18 03:37:33;;;;;;;0.52;0.20;;;;;;;;;;5012609;28;20488;-81
2022/09/18 03:39:59;;;;;;;0.70;0.10;;;;;;;;;;5015449;28;20030;-80
2022/09/18 03:42:25;;;;;;;0.45;0.20;;;;;;;;;;5016164;28;20385;-82
2022/09/18 03:44:51;;;;;;;0.77;0.10;;;;;;;;;;5016245;28;20030;-83
2022/09/18 03:47:17;;;;;;;1.15;0.10;;;;;;;;;;5014920;28;20497;-80
2022/09/18 03:49:43;;;;;;;2.42;0.10;;;;;;;;;;5016180;28;20030;-79
2022/09/18 03:52:09;;;;;;;0.65;0.10;;;;;;;;;;5015894;28;20029;-79
2022/09/18 03:54:35;;;;;;;0.20;0.05;;;;;;;;;;5015619;28;20026;-82
2022/09/18 03:57:01;;;;;;;0.98;0.10;;;;;;;;;;5016116;28;20022;-82
2022/09/18 03:59:27;;;;;;;0.88;0.00;;;;;;;;;;5016079;28;20081;-81
2022/09/18 04:01:53;;;;;;;1.13;0.10;;;;;;;;;;5015958;28;20030;-79
2022/09/18 04:04:19;;;;;;;0.88;0.20;;;;;;;;;;5015730;28;20384;-81
2022/09/18 04:06:45;;;;;;;0.30;0.10;;;;;;;;;;5014754;28;20083;-81
2022/09/18 04:09:11;;;;;;;0.52;0.10;;;;;;;;;;5015715;28;20021;-81
2022/09/18 04:11:37;;;;;;;0.63;0.10;;;;;;;;;;5015649;28;20037;-80
2022/09/18 04:14:03;;;;;;;0.10;0.10;;;;;;;;;;5015769;28;20026;-83
2022/09/18 04:16:30;;;;;;;0.43;0.10;;;;;;;;;;5015508;28;20022;-80
2022/09/18 04:18:56;;;;;;;0.65;0.10;;;;;;;;;;5015572;28;20465;-78
2022/09/18 04:21:22;;;;;;;2.05;0.20;;;;;;;;;;5015491;28;20034;-80
2022/09/18 04:23:48;;;;;;;2.28;0.10;;;;;;;;;;5015577;28;20450;-79
2022/09/18 04:26:14;;;;;;;1.05;0.10;;;;;;;;;;5015534;28;20022;-81
2022/09/18 04:28:40;;;;;;;0.30;0.00;;;;;;;;;;5015170;28;20029;-78
2022/09/18 04:31:06;;;;;;;0.65;0.10;;;;;;;;;;5015302;28;20022;-79
2022/09/18 04:33:32;;;;;;;0.80;0.10;;;;;;;;;;5019992;28;20036;-75
2022/09/18 04:35:58;;;;;;;1.13;0.30;;;;;;;;;;5034886;28;20060;-82
2022/09/18 04:38:28;;;;;;;0.28;0.10;;;;;;;;;;5030476;28;20021;-81
2022/09/18 04:40:55;;;;;;;0.70;0.10;;;;;;;;;;5015279;28;20030;-78
2022/09/18 04:43:21;;;;;;;2.65;0.40;;;;;;;;;;5014974;28;20022;-76
2022/09/18 04:45:48;;;;;;;0.22;0.20;;;;;;;;;;5015366;28;20053;-76
2022/09/18 04:48:15;;;;;;;0.90;0.20;;;;;;;;;;5014906;28;20033;-79
2022/09/18 04:50:41;;;;;;;0.13;0.10;;;;;;;;;;5014479;28;20465;-79
2022/09/18 04:53:07;;;;;;;0.10;0.10;;;;;;;;;;5026122;28;20029;-78
2022/09/18 04:55:33;;;;;;;0.70;0.10;;;;;;;;;;5033991;28;20084;-78
2022/09/18 04:57:59;;;;;;;0.75;0.10;;;;;;;;;;5034701;28;20523;-78
2022/09/18 05:00:27;;;;;;;0.43;0.10;;;;;;;;;;5034723;28;20037;-79
2022/09/18 05:02:53;;;;;;;0.38;0.35;;;;;;;;;;5034628;28;20028;-77
2022/09/18 05:05:19;;;;;;;0.65;0.10;;;;;;;;;;5034564;28;20048;-83
2022/09/18 05:07:45;;;;;;;0.82;0.10;;;;;;;;;;5034374;28;20102;-79
2022/09/18 05:10:11;;;;;;;0.08;0.03;;;;;;;;;;5016410;28;20036;-80
2022/09/18 05:12:41;;;;;;;0.98;0.10;;;;;;;;;;5014131;28;20041;-80
2022/09/18 05:15:07;;;;;;;0.10;0.10;;;;;;;;;;5014803;28;20076;-81
2022/09/18 05:17:33;;;;;;;0.20;0.10;;;;;;;;;;5014506;28;20022;-79
2022/09/18 05:19:59;;;;;;;1.85;0.40;;;;;;;;;;5014393;28;20025;-81
2022/09/18 05:22:26;;;;;;;2.35;0.70;;;;;;;;;;5014236;28;20030;-80
2022/09/18 05:24:52;;;;;;;0.28;0.28;;;;;;;;;;5013287;28;20496;-78
2022/09/18 05:27:18;;;;;;;1.65;0.77;;;;;;;;;;5014369;28;20029;-82
2022/09/18 05:29:44;;;;;;;0.60;0.30;;;;;;;;;;5014069;28;20026;-81
2022/09/18 05:32:10;;;;;;;0.95;0.30;;;;;;;;;;5014356;28;20052;-82
2022/09/18 05:34:36;;;;;;;1.58;0.82;;;;;;;;;;5014090;28;20104;-79
2022/09/18 05:37:02;;;;;;;1.83;0.80;;;;;;;;;;5014369;28;20026;-78
2022/09/18 05:39:28;;;;;;;1.95;0.80;;;;;;;;;;5014477;28;20052;-81
2022/09/18 05:41:54;;;;;;;1.25;0.80;;;;;;;;;;5013848;28;20033;-82
2022/09/18 05:44:20;;;;;;;5.88;0.80;;;;;;;;;;5014173;28;20409;-79
2022/09/18 05:46:47;;;;;;;2.42;0.40;;;;;;;;;;5013950;28;20383;-80
2022/09/18 05:49:14;;;;;;;1.50;0.40;;;;;;;;;;5014101;28;20033;-80
2022/09/18 05:51:40;;;;;;;0.40;0.15;;;;;;;;;;5013962;28;20030;-79
2022/09/18 05:54:06;;;;;;;1.67;0.50;;;;;;;;;;5014029;28;20029;-81
2022/09/18 05:56:32;;;;;;;1.25;0.40;;;;;;;;;;5014984;28;20029;-81
2022/09/18 05:58:58;;;;;;;0.65;0.40;;;;;;;;;;5013036;28;21176;-82
2022/09/18 06:01:24;;;;;;;0.68;0.30;;;;;;;;;;5013505;28;20133;-81
2022/09/18 06:03:50;;;;;;;0.35;0.20;;;;;;;;;;5012242;28;20121;-79
2022/09/18 06:06:16;;;;;;;0.60;0.30;;;;;;;;;;5013852;28;20022;-85
2022/09/18 06:08:42;;;;;;;2.33;0.20;;;;;;;;;;5013439;28;20507;-79
2022/09/18 06:11:09;;;;;;;0.38;0.20;;;;;;;;;;5013298;28;20057;-82
2022/09/18 06:13:35;;;;;;;0.40;0.30;;;;;;;;;;5012410;28;20026;-82
2022/09/18 06:16:01;;;;;;;0.60;0.30;;;;;;;;;;5013395;28;20022;-80
2022/09/18 06:18:27;;;;;;;0.40;0.30;;;;;;;;;;5013334;28;20025;-82
2022/09/18 06:20:54;;;;;;;1.13;0.30;;;;;;;;;;5013394;28;20477;-82
2022/09/18 06:23:22;;;;;;;1.30;0.43;;;;;;;;;;5012227;28;20476;-83
2022/09/18 06:25:48;;;;;;;1.85;0.50;;;;;;;;;;5013310;28;20025;-79
2022/09/18 06:28:14;;;;;;;1.95;0.35;;;;;;;;;;5012839;28;20076;-81
2022/09/18 06:30:40;;;;;;;0.43;0.38;;;;;;;;;;5013357;28;20038;-81
2022/09/18 06:33:07;;;;;;;1.27;0.30;;;;;;;;;;5013307;28;20030;-80
2022/09/18 06:35:33;;;;;;;0.43;0.28;;;;;;;;;;5012744;28;20057;-82
2022/09/18 06:38:01;;;;;;;0.63;0.30;;;;;;;;;;5012810;28;20057;-80
2022/09/18 06:40:28;;;;;;;1.00;0.40;;;;;;;;;;5013210;28;20021;-86
2022/09/18 06:42:55;;;;;;;0.50;0.30;;;;;;;;;;5013103;28;20025;-81
2022/09/18 06:45:21;;;;;;;1.95;0.65;;;;;;;;;;5013136;28;20029;-80
2022/09/18 06:47:47;;;;;;;0.77;0.40;;;;;;;;;;5013067;28;20026;-79
2022/09/18 06:50:13;;;;;;;0.60;0.30;;;;;;;;;;5012944;28;20026;-81
2022/09/18 06:52:39;;;;;;;1.98;0.30;;;;;;;;;;5013573;28;20502;-83
2022/09/18 06:55:05;;;;;;;1.20;0.50;;;;;;;;;;5011689;28;20030;-82
2022/09/18 06:57:31;;;;;;;1.27;0.38;;;;;;;;;;5013001;28;20097;-84
2022/09/18 06:59:57;;;;;;;2.42;0.73;;;;;;;;;;5012953;28;20030;-83
2022/09/18 07:02:23;;;;;;;0.82;0.50;;;;;;;;;;5012883;28;20362;-79
2022/09/18 07:04:50;;;;;;;0.93;0.55;;;;;;;;;;5012804;28;20025;-81
2022/09/18 07:07:16;;;;;;;2.80;1.30;;;;;;;;;;5012746;28;20029;-84
2022/09/18 07:09:42;;;;;;;2.00;0.70;;;;;;;;;;5012630;28;20036;-82
2022/09/18 07:12:08;;;;;;;1.15;0.50;;;;;;;;;;5012551;28;20480;-80
2022/09/18 07:14:35;;;;;;;1.00;0.30;;;;;;;;;;5015024;28;20053;-82
2022/09/18 07:17:02;;;;;;;1.20;0.50;;;;;;;;;;5016811;28;20022;-79
2022/09/18 07:19:28;;;;;;;1.77;0.50;;;;;;;;;;5015470;28;20045;-79
2022/09/18 07:21:54;;;;;;;1.30;0.60;;;;;;;;;;5016705;28;20029;-82
2022/09/18 07:24:20;;;;;;;1.08;0.20;;;;;;;;;;5016467;28;20022;-83
2022/09/18 07:26:46;;;;;;;1.58;0.80;;;;;;;;;;5017321;28;20088;-79
2022/09/18 07:29:12;;;;;;;1.17;0.40;;;;;;;;;;5031577;28;20025;-82
2022/09/18 07:31:38;;;;;;;1.17;0.50;;;;;;;;;;5023334;28;20026;-79
2022/09/18 07:34:06;;;;;;;2.17;0.30;;;;;;;;;;5027864;28;20057;-79
2022/09/18 07:36:32;;;;;;;1.42;0.40;;;;;;;;;;5037713;28;20459;-80
2022/09/18 07:38:58;;;;;;;1.73;0.63;;;;;;;;;;5036094;28;20030;-79
2022/09/18 07:41:24;;;;;;;1.95;0.30;;;;;;;;;;5027166;28;20018;-85
2022/09/18 07:43:50;;;;;;;0.32;0.20;;;;;;;;;;5036126;28;20033;-78
2022/09/18 07:46:16;;;;;;;2.90;0.60;;;;;;;;;;5037360;28;20550;-79
2022/09/18 07:48:47;;;;;;;0.68;0.30;;;;;;;;;;5036281;28;20048;-83
2022/09/18 07:51:13;;;;;;;2.10;0.60;;;;;;;;;;5035711;28;20032;-77
2022/09/18 07:53:40;;;;;;;0.70;0.20;;;;;;;;;;5035690;28;20021;-86
2022/09/18 07:56:07;;;;;;;1.08;0.35;;;;;;;;;;5035913;28;20025;-79
2022/09/18 07:58:33;;;;;;;1.33;0.47;;;;;;;;;;5035685;28;20477;-82
2022/09/18 08:01:01;;;;;;;3.63;0.57;;;;;;;;;;5036441;28;20045;-78
2022/09/18 08:03:27;;;;;;;2.92;0.28;;;;;;;;;;5035903;28;20508;-83
2022/09/18 08:05:53;;;;;;;8.55;2.90;;;;;;;;;;5020587;28;20033;-82
2022/09/18 08:08:19;;;;;;;0.63;0.22;;;;;;;;;;5030932;28;20427;-80
2022/09/18 08:10:46;;;;;;;2.15;0.28;;;;;;;;;;5015407;28;20026;-87
2022/09/18 08:13:12;;;;;;;2.05;0.30;;;;;;;;;;5015797;28;20041;-80
2022/09/18 08:15:39;;;;;;;1.05;0.40;;;;;;;;;;5015678;28;20560;-81
2022/09/18 08:18:05;;;;;;;0.40;0.30;;;;;;;;;;5015703;28;20038;-86
2022/09/18 08:20:45;;;;;;;0.90;0.40;;;;;;;;;;5019846;28;20078;-82
2022/09/18 08:23:11;;;;;;;0.38;0.20;;;;;;;;;;5034071;28;20030;-82
2022/09/18 08:25:37;;;;;;;0.80;0.40;;;;;;;;;;5034733;28;20029;-81
2022/09/18 08:28:05;;;;;;;1.10;0.30;;;;;;;;;;5035206;28;20026;-85
2022/09/18 08:30:31;;;;;;;1.20;0.47;;;;;;;;;;5035084;28;20034;-85
2022/09/18 08:33:01;;;;;;;0.68;0.60;;;;;;;;;;5035267;28;20031;-83
2022/09/18 08:35:28;;;;;;;1.30;0.77;;;;;;;;;;5034851;28;20061;-83
2022/09/18 08:37:54;;;;;;;3.15;1.73;;;;;;;;;;5034999;28;20029;-80
2022/09/18 08:40:23;;;;;;;1.83;0.80;;;;;;;;;;5034851;28;20026;-80
2022/09/18 08:42:55;;;;;;;5.25;3.28;;;;;;;;;;5034929;28;20534;-82
2022/09/18 08:45:24;;;;;;;1.65;0.73;;;;;;;;;;5016911;28;20083;-79
2022/09/18 08:47:59;;;;;;;0.88;0.10;;;;;;;;;;5024709;28;20440;-78
2022/09/18 08:50:27;;;;;;;0.50;0.38;;;;;;;;;;5014804;28;20036;-81
2022/09/18 08:52:57;;;;;;;1.67;0.75;;;;;;;;;;5015060;28;20022;-82
2022/09/18 08:55:29;;;;;;;0.57;0.30;;;;;;;;;;5013735;28;20065;-79
2022/09/18 08:57:58;;;;;;;1.40;0.90;;;;;;;;;;5014628;28;20025;-81
2022/09/18 09:00:29;;;;;;;0.95;0.63;;;;;;;;;;5014581;28;20058;-82
2022/09/18 09:03:01;;;;;;;0.88;0.40;;;;;;;;;;5014650;28;20473;-82
2022/09/18 09:05:29;;;;;;;1.23;0.52;;;;;;;;;;5014719;28;20061;-80
2022/09/18 09:07:55;;;;;;;0.98;0.50;;;;;;;;;;5014488;28;20026;-81
2022/09/18 09:10:27;;;;;;;1.73;0.47;;;;;;;;;;5013767;28;20083;-80
2022/09/18 09:12:56;;;;;;;1.23;0.40;;;;;;;;;;5023539;28;20080;-76
2022/09/18 09:15:22;;;;;;;1.48;0.98;;;;;;;;;;5005332;28;20381;-80
2022/09/18 09:18:08;;;;;;;0.82;0.40;;;;;;;;;;5014357;28;20022;-79
2022/09/18 09:20:53;;;;;;;1.17;0.47;;;;;;;;;;5014433;28;20022;-80
2022/09/18 09:23:19;;;;;;;;;;;;;;;;;;5014269;28;20458;-79
2022/09/18 09:26:04;;;;;;;0.90;0.60;;;;;;;;;;5014283;28;20005;-82
2022/09/18 09:28:50;;;;;;;1.13;0.45;;;;;;;;;;5014394;28;20055;-81
2022/09/18 09:31:19;;;;;;;1.27;0.50;;;;;;;;;;5001198;28;20114;-79
2022/09/18 09:34:05;;;;;;;1.65;0.50;;;;;;;;;;5013959;28;20093;-83
2022/09/18 09:36:33;;;;;;;3.00;0.82;;;;;;;;;;4997396;28;20046;-82
2022/09/18 09:39:05;;;;;;;0.88;0.50;;;;;;;;;;5017249;28;20095;-84
2022/09/18 09:41:31;;;;;;;1.17;0.45;;;;;;;;;;5033127;28;20084;-80
2022/09/18 09:44:01;;;;;;;2.53;0.52;;;;;;;;;;5033760;28;20067;-81
2022/09/18 09:46:41;;;;;;;1.13;1.00;;;;;;;;;;5025749;28;20381;-83
2022/09/18 09:49:26;;;;;;;2.22;0.70;;;;;;;;;;5013874;28;20049;-80
2022/09/18 09:51:52;;;;;;;2.00;0.60;;;;;;;;;;5013417;28;20101;-80
2022/09/18 09:54:19;;;;;;;1.77;0.68;;;;;;;;;;5013795;28;20030;-79
2022/09/18 09:56:50;;;;;;;0.95;0.40;;;;;;;;;;5013707;28;20052;-81
2022/09/18 09:59:24;;;;;;;1.10;0.60;;;;;;;;;;5013943;28;20021;-80
2022/09/18 10:02:09;;;;;;;2.22;0.90;;;;;;;;;;5011898;28;20447;-80
2022/09/18 10:04:49;;;;;;;1.52;0.50;;;;;;;;;;5013153;28;20541;-84
2022/09/18 10:07:24;;;;;;;2.53;1.10;;;;;;;;;;5033451;28;20104;-78
2022/09/18 10:10:11;;;;;;;0.82;0.70;;;;;;;;;;5021380;28;20026;-79
2022/09/18 10:12:40;;;;;;;1.63;0.57;;;;;;;;;;5003623;28;20107;-82
2022/09/18 10:15:13;;;;;;;1.92;0.60;;;;;;;;;;5016146;28;20084;-80
2022/09/18 10:17:40;;;;;;;1.33;0.60;;;;;;;;;;5033227;28;20357;-83
2022/09/18 10:20:07;;;;;;;3.20;0.70;;;;;;;;;;5026282;28;20061;-83
2022/09/18 10:22:34;;;;;;;1.20;0.60;;;;;;;;;;5013541;28;20056;-83
2022/09/18 10:25:03;;;;;;;1.48;0.50;;;;;;;;;;5013202;28;20068;-80
2022/09/18 10:27:29;;;;;;;1.70;0.75;;;;;;;;;;5013325;28;20034;-82
2022/09/18 10:29:55;;;;;;;2.17;0.95;;;;;;;;;;5012846;28;20041;-80
2022/09/18 10:32:43;;;;;;;2.55;0.90;;;;;;;;;;5015522;28;20081;-83
2022/09/18 10:35:35;;;;;;;2.50;1.25;;;;;;;;;;5013063;28;20112;-80
2022/09/18 10:38:01;;;;;;;0.85;0.55;;;;;;;;;;5008972;28;20120;-80
2022/09/18 10:40:32;;;;;;;2.28;0.77;;;;;;;;;;5012881;28;20028;-82
2022/09/18 10:42:59;;;;;;;1.10;0.63;;;;;;;;;;5013299;28;20025;-85
2022/09/18 10:45:40;;;;;;;1.00;0.60;;;;;;;;;;5013078;28;20064;-80
2022/09/18 10:48:12;;;;;;;2.55;0.60;;;;;;;;;;5012693;28;20022;-81
2022/09/18 10:50:39;;;;;;;2.15;0.80;;;;;;;;;;5012985;28;20109;-81
2022/09/18 10:53:15;;;;;;;2.63;0.60;;;;;;;;;;5012477;28;20018;-82
2022/09/18 10:55:49;;;;;;;3.65;1.30;;;;;;;;;;5012951;28;20018;-83
2022/09/18 10:58:15;;;;;;;1.05;0.63;;;;;;;;;;5013018;28;20022;-81
2022/09/18 11:00:46;;;;;;;2.85;0.75;;;;;;;;;;5012979;28;20046;-78
2022/09/18 11:03:30;;;;;;;1.55;0.60;;;;;;;;;;5012658;28;20030;-81
2022/09/18 11:05:56;;;;;;;;;;;;;;;;;;5013400;28;20549;-79
2022/09/18 11:08:29;;;;;;;2.90;2.42;;;;;;;;;;5013033;28;19959;-84
2022/09/18 11:11:16;;;;;;;1.50;0.85;;;;;;;;;;5012271;28;20033;-79
2022/09/18 11:13:44;;;;;;;1.80;0.80;;;;;;;;;;5002619;28;20449;-81
2022/09/18 11:16:10;;;;;;;1.45;1.20;;;;;;;;;;5012438;28;20025;-81
2022/09/18 11:18:37;;;;;;;0.95;0.50;;;;;;;;;;5012634;28;20018;-80
2022/09/18 11:21:04;;;;;;;1.98;0.68;;;;;;;;;;5011189;28;20371;-84
2022/09/18 11:23:32;;;;;;;1.63;0.60;;;;;;;;;;5011041;28;20026;-78
2022/09/18 11:26:15;;;;;;;2.47;0.47;;;;;;;;;;5012328;28;20045;-82
2022/09/18 11:28:41;;;;;;;1.00;0.40;;;;;;;;;;5031799;28;20132;-81
2022/09/18 11:31:11;;;;;;;2.13;1.92;;;;;;;;;;5021466;28;20041;-79
2022/09/18 11:33:39;;;;;;;1.50;0.70;;;;;;;;;;5011447;28;20417;-80
2022/09/18 11:36:07;;;;;;;1.15;0.47;;;;;;;;;;5012351;28;20093;-82
2022/09/18 11:38:38;;;;;;;2.70;1.38;;;;;;;;;;5012636;28;20037;-80
2022/09/18 11:41:04;;;;;;;3.63;1.02;;;;;;;;;;5010989;28;20487;-81
2022/09/18 11:43:33;;;;;;;2.17;0.40;;;;;;;;;;5012564;28;20803;-81
2022/09/18 11:46:18;;;;;;;1.77;0.80;;;;;;;;;;5012380;28;20033;-80
2022/09/18 11:48:48;;;;;;;3.10;1.65;;;;;;;;;;5012391;28;20095;-81
2022/09/18 11:51:19;;;;;;;1.88;0.40;;;;;;;;;;5012908;28;20527;-81
2022/09/18 11:53:50;;;;;;;1.08;0.45;;;;;;;;;;5012389;28;20133;-84
2022/09/18 11:56:31;;;;;;;0.88;0.40;;;;;;;;;;5011166;28;20366;-83
2022/09/18 11:59:19;;;;;;;3.47;1.65;;;;;;;;;;5012508;28;20018;-82
2022/09/18 12:01:49;;;;;;;2.35;0.80;;;;;;;;;;5015392;28;20045;-85
2022/09/18 12:04:34;;;;;;;4.38;2.60;;;;;;;;;;5015948;28;20022;-82
2022/09/18 12:07:03;;;;;;;5.90;3.72;;;;;;;;;;5015670;28;20026;-82
2022/09/18 12:09:38;;;;;;;2.13;1.50;;;;;;;;;;5017248;28;20030;-84
2022/09/18 12:12:05;;;;;;;0.63;0.32;;;;;;;;;;5016068;28;20030;-85
2022/09/18 12:14:40;;;;;;;1.10;0.60;;;;;;;;;;5015900;28;20030;-86
2022/09/18 12:17:13;;;;;;;1.23;0.40;;;;;;;;;;5015688;28;20022;-80
2022/09/18 12:19:39;;;;;;;2.23;0.73;;;;;;;;;;5015375;28;20026;-84
2022/09/18 12:22:24;;;;;;;1.50;0.93;;;;;;;;;;5015591;28;20018;-86
2022/09/18 12:24:50;;;;;;;1.85;0.75;;;;;;;;;;5015546;28;20048;-82
2022/09/18 12:27:20;;;;;;;2.65;0.50;;;;;;;;;;5015366;28;20018;-80
2022/09/18 12:29:46;;;;;;;3.05;1.10;;;;;;;;;;5015325;28;20033;-79
2022/09/18 12:32:22;;;;;;;0.95;0.57;;;;;;;;;;5015343;28;20028;-80
2022/09/18 12:34:54;;;;;;;1.23;0.95;;;;;;;;;;5015220;28;20046;-84
2022/09/18 12:37:45;;;;;;;1.40;0.65;;;;;;;;;;5015294;28;20085;-79
2022/09/18 12:40:30;;;;;;;1.27;0.50;;;;;;;;;;5015424;28;20030;-81
2022/09/18 12:42:56;;;;;;;;;;;;;;;;;;5015852;28;20022;-83
2022/09/18 12:45:41;;;;;;;0.70;0.30;;;;;;;;;;5015191;28;19913;-81
2022/09/18 12:48:13;;;;;;;1.65;0.77;;;;;;;;;;5015241;28;20418;-82
2022/09/18 12:50:48;;;;;;;6.78;5.72;;;;;;;;;;5015056;28;20361;-80
2022/09/18 12:53:32;;;;;;;3.72;2.15;;;;;;;;;;5014868;28;20120;-79
2022/09/18 12:56:02;;;;;;;4.00;2.47;;;;;;;;;;5014607;28;20018;-79
2022/09/18 12:58:34;;;;;;;2.00;0.88;;;;;;;;;;5014867;28;20351;-79
2022/09/18 13:01:03;;;;;;;2.92;1.67;;;;;;;;;;5013463;28;20366;-76
2022/09/18 13:03:39;;;;;;;1.90;0.90;;;;;;;;;;5014881;28;20032;-79
2022/09/18 13:06:09;;;;;;;2.03;0.70;;;;;;;;;;5014836;28;20437;-80
2022/09/18 13:08:39;;;;;;;4.28;2.53;;;;;;;;;;5014535;28;20096;-81
2022/09/18 13:11:09;;;;;;;4.72;2.38;;;;;;;;;;5014651;28;20026;-78
2022/09/18 13:13:38;;;;;;;2.08;0.75;;;;;;;;;;5014386;28;20104;-81
2022/09/18 13:16:07;;;;;;;1.13;0.60;;;;;;;;;;5014530;28;20381;-79
2022/09/18 13:18:52;;;;;;;9.30;6.60;;;;;;;;;;5014006;28;20409;-79
2022/09/18 13:21:23;;;;;;;1.17;0.50;;;;;;;;;;5014062;28;20092;-76
2022/09/18 13:23:50;;;;;;;8.50;6.55;;;;;;;;;;5014445;28;20393;-78
2022/09/18 13:26:17;;;;;;;8.68;7.35;;;;;;;;;;5014174;28;20053;-77
2022/09/18 13:28:43;;;;;;;4.28;2.53;;;;;;;;;;5014439;28;20057;-78
2022/09/18 13:31:28;;;;;;;4.70;3.30;;;;;;;;;;5014099;28;20065;-80
2022/09/18 13:33:56;;;;;;;1.10;0.50;;;;;;;;;;5014146;28;20022;-81
2022/09/18 13:36:33;;;;;;;3.10;1.13;;;;;;;;;;5013914;28;20137;-79
2022/09/18 13:39:01;;;;;;;1.65;0.90;;;;;;;;;;5013902;28;20030;-80
2022/09/18 13:41:28;;;;;;;1.30;0.80;;;;;;;;;;5014099;28;20037;-83
2022/09/18 13:43:56;;;;;;;1.23;0.80;;;;;;;;;;5013742;28;20034;-80
2022/09/18 13:46:28;;;;;;;0.90;0.60;;;;;;;;;;5014065;28;20026;-80
2022/09/18 13:48:55;;;;;;;5.25;2.53;;;;;;;;;;5013842;28;20046;-79
2022/09/18 13:51:31;;;;;;;8.27;5.22;;;;;;;;;;5013909;28;20100;-79
2022/09/18 13:54:16;;;;;;;2.10;0.82;;;;;;;;;;5014002;28;20052;-79
2022/09/18 13:57:09;;;;;;;1.30;1.00;;;;;;;;;;5013845;28;20050;-80
2022/09/18 13:59:44;;;;;;;1.92;0.60;;;;;;;;;;5013771;28;20018;-81
2022/09/18 14:02:29;;;;;;;2.45;1.65;;;;;;;;;;5013485;28;20073;-79
2022/09/18 14:05:04;;;;;;;1.10;0.40;;;;;;;;;;5012276;28;20022;-79
2022/09/18 14:07:30;;;;;;;1.35;0.57;;;;;;;;;;5012075;28;20076;-78
2022/09/18 14:09:57;;;;;;;2.30;0.45;;;;;;;;;;5013644;28;20022;-77
2022/09/18 14:12:24;;;;;;;1.20;0.40;;;;;;;;;;5013480;28;20465;-78
2022/09/18 14:15:16;;;;;;;1.73;0.57;;;;;;;;;;5013264;28;20025;-79
2022/09/18 14:18:02;;;;;;;2.45;0.70;;;;;;;;;;5009897;28;20037;-81
2022/09/18 14:20:29;;;;;;;2.03;1.08;;;;;;;;;;5013432;28;20030;-81
2022/09/18 14:22:55;;;;;;;1.67;0.60;;;;;;;;;;5012720;28;20029;-79
2022/09/18 14:25:39;;;;;;;4.03;1.90;;;;;;;;;;5013308;28;20541;-77
2022/09/18 14:28:06;;;;;;;;;;;;;;;;;;5013763;28;20033;-84
2022/09/18 14:30:33;;;;;;;1.27;0.55;;;;;;;;;;5013115;28;19924;-78
2022/09/18 14:33:17;;;;;;;0.90;0.60;;;;;;;;;;5012941;28;20026;-84
2022/09/18 14:35:43;;;;;;;;;;;;;;;;;;5013111;28;20057;-80
2022/09/18 14:38:24;;;;;;;2.15;1.10;;;;;;;;;;5013128;28;19906;-81
2022/09/18 14:41:17;;;;;;;2.53;1.58;;;;;;;;;;5013930;28;20080;-82
2022/09/18 14:43:47;;;;;;;2.70;1.40;;;;;;;;;;5011658;28;20030;-79
2022/09/18 14:46:17;;;;;;;6.57;5.80;;;;;;;;;;5012996;28;20018;-79
2022/09/18 14:48:43;;;;;;;4.68;2.47;;;;;;;;;;5013010;28;20072;-80
2022/09/18 14:51:18;;;;;;;2.10;0.80;;;;;;;;;;5012722;28;20029;-81
2022/09/18 14:53:45;;;;;;;3.95;1.60;;;;;;;;;;5012831;28;20028;-81
2022/09/18 14:56:16;;;;;;;8.13;4.57;;;;;;;;;;5012940;28;20045;-79
2022/09/18 14:58:45;;;;;;;7.10;4.50;;;;;;;;;;5012552;28;20021;-81
2022/09/18 15:01:21;;;;;;;9.57;5.78;;;;;;;;;;5012857;28;20026;-78
2022/09/18 15:03:48;;;;;;;10.55;6.18;;;;;;;;;;5011273;28;20030;-79